createdAt,value
2023-02-11T00:02:31.959Z,77.28
2023-02-11T00:05:34.740Z,76.93
2023-02-11T00:08:37.838Z,77.12
2023-02-11T00:11:40.229Z,77.11
2023-02-11T00:14:42.551Z,76.70
2023-02-11T00:17:48.389Z,76.91
2023-02-11T00:20:50.741Z,77.13
2023-02-11T00:23:54.918Z,77.07
2023-02-11T00:26:57.385Z,77.34
2023-02-11T00:30:02.250Z,77.19
2023-02-11T00:33:06.355Z,76.91
2023-02-11T00:36:13.279Z,77.05
2023-02-11T00:39:15.722Z,77.14
2023-02-11T00:42:18.220Z,76.60
2023-02-11T00:45:21.400Z,76.63
2023-02-11T00:48:23.879Z,77.37
2023-02-11T00:51:28.302Z,77.02
2023-02-11T00:54:30.642Z,77.19
2023-02-11T00:57:33.272Z,77.51
2023-02-11T01:00:35.690Z,77.72
2023-02-11T01:03:38.777Z,77.01
2023-02-11T01:06:41.233Z,77.49
2023-02-11T01:09:43.602Z,76.85
2023-02-11T01:12:46.103Z,76.65
2023-02-11T01:15:48.628Z,77.51
2023-02-11T01:18:51.237Z,77.52
2023-02-11T01:21:53.612Z,78.45
2023-02-11T01:24:57.743Z,78.49
2023-02-11T01:28:00.206Z,78.07
2023-02-11T01:31:03.361Z,77.33
2023-02-11T01:34:08.360Z,78.83
2023-02-11T01:37:12.698Z,78.62
2023-02-11T01:40:17.102Z,78.79
2023-02-11T01:43:21.250Z,78.69
2023-02-11T01:46:29.487Z,78.82
2023-02-11T01:49:36.552Z,79.46
2023-02-11T01:52:41.283Z,79.67
2023-02-11T01:56:02.539Z,79.99
2023-02-11T01:59:11.738Z,80.50
2023-02-11T02:02:21.438Z,80.15
2023-02-11T02:05:38.990Z,80.41
2023-02-11T02:08:51.141Z,81.07
2023-02-11T02:11:54.177Z,80.47
2023-02-11T02:15:20.081Z,81.11
2023-02-11T02:19:07.702Z,81.52
2023-02-11T02:22:10.655Z,81.59
2023-02-11T02:25:13.015Z,81.05
2023-02-11T02:28:40.114Z,81.51
2023-02-11T02:31:54.800Z,81.11
2023-02-11T02:35:08.251Z,81.22
2023-02-11T02:38:23.842Z,81.39
2023-02-11T02:41:32.462Z,81.67
2023-02-11T02:44:34.950Z,81.21
2023-02-11T02:47:37.358Z,80.95
2023-02-11T02:50:39.826Z,81.13
2023-02-11T02:53:53.438Z,81.80
2023-02-11T02:57:12.035Z,81.13
2023-02-11T03:00:17.159Z,81.36
2023-02-11T03:03:28.669Z,81.51
2023-02-11T03:06:49.323Z,81.38
2023-02-11T03:09:58.431Z,81.28
2023-02-11T03:13:03.234Z,80.82
2023-02-11T03:16:27.023Z,81.48
2023-02-11T03:19:34.967Z,81.00
2023-02-11T03:23:05.677Z,80.53
2023-02-11T03:26:14.182Z,80.41
2023-02-11T03:29:28.442Z,81.18
2023-02-11T03:32:46.894Z,80.95
2023-02-11T03:36:09.371Z,80.47
2023-02-11T03:39:16.269Z,81.39
2023-02-11T03:42:20.238Z,81.75
2023-02-11T03:45:24.446Z,81.44
2023-02-11T03:48:33.343Z,82.01
2023-02-11T03:51:37.466Z,81.80
2023-02-11T03:54:43.361Z,82.19
2023-02-11T03:57:47.240Z,82.24
2023-02-11T04:00:49.842Z,82.81
2023-02-11T04:03:52.248Z,82.52
2023-02-11T04:06:54.549Z,82.39
2023-02-11T04:09:56.992Z,82.65
2023-02-11T04:12:59.530Z,82.95
2023-02-11T04:16:02.016Z,82.68
2023-02-11T04:19:04.945Z,82.24
2023-02-11T04:22:08.111Z,82.85
2023-02-11T04:25:10.741Z,82.70
2023-02-11T04:28:13.236Z,82.71
2023-02-11T04:31:15.982Z,82.72
2023-02-11T04:34:18.626Z,82.58
2023-02-11T04:37:21.245Z,82.56
2023-02-11T04:40:23.626Z,83.43
2023-02-11T04:43:26.081Z,83.75
2023-02-11T04:46:28.507Z,83.10
2023-02-11T04:49:30.909Z,83.70
2023-02-11T04:52:33.243Z,83.21
2023-02-11T04:55:35.611Z,83.29
2023-02-11T04:58:38.304Z,82.74
2023-02-11T05:01:40.860Z,83.30
2023-02-11T05:04:43.257Z,83.13
2023-02-11T05:07:45.814Z,83.30
2023-02-11T05:10:48.224Z,83.14
2023-02-11T05:13:51.288Z,82.92
2023-02-11T05:16:53.762Z,81.72
2023-02-11T05:19:56.170Z,81.69
2023-02-11T05:22:58.514Z,82.18
2023-02-11T05:26:01.229Z,82.58
2023-02-11T05:29:03.791Z,82.04
2023-02-11T05:32:07.350Z,82.61
2023-02-11T05:35:09.800Z,83.24
2023-02-11T05:38:12.289Z,82.46
2023-02-11T05:41:14.737Z,82.08
2023-02-11T05:44:17.155Z,81.37
2023-02-11T05:47:19.553Z,80.93
2023-02-11T05:50:22.036Z,81.42
2023-02-11T05:53:27.885Z,81.75
2023-02-11T05:56:30.224Z,82.42
2023-02-11T05:59:32.639Z,81.50
2023-02-11T06:02:35.211Z,81.80
2023-02-11T06:05:37.601Z,82.01
2023-02-11T06:08:40.334Z,81.54
2023-02-11T06:11:42.702Z,81.43
2023-02-11T06:14:45.057Z,81.42
2023-02-11T06:17:47.502Z,81.89
2023-02-11T06:20:49.948Z,80.75
2023-02-11T06:23:52.366Z,80.58
2023-02-11T06:26:54.731Z,80.17
2023-02-11T06:29:57.208Z,79.99
2023-02-11T06:32:59.570Z,78.83
2023-02-11T06:36:02.738Z,78.46
2023-02-11T06:39:05.217Z,77.77
2023-02-11T06:42:08.051Z,77.82
2023-02-11T06:45:11.192Z,78.35
2023-02-11T06:48:13.848Z,78.13
2023-02-11T06:51:17.160Z,77.73
2023-02-11T06:54:19.654Z,77.26
2023-02-11T06:57:22.081Z,76.82
2023-02-11T07:00:24.444Z,77.44
2023-02-11T07:03:26.895Z,77.72
2023-02-11T07:06:29.539Z,75.01
2023-02-11T07:09:32.297Z,75.66
2023-02-11T07:12:34.867Z,74.64
2023-02-11T07:15:38.174Z,75.60
2023-02-11T07:18:41.159Z,74.77
2023-02-11T07:21:43.577Z,75.16
2023-02-11T07:24:45.988Z,74.77
2023-02-11T07:27:50.101Z,74.24
2023-02-11T07:30:52.581Z,74.57
2023-02-11T07:33:57.758Z,75.33
2023-02-11T07:37:00.187Z,75.35
2023-02-11T07:40:03.575Z,75.85
2023-02-11T07:43:06.057Z,76.10
2023-02-11T07:46:12.169Z,75.65
2023-02-11T07:49:15.125Z,74.31
2023-02-11T07:52:17.564Z,74.21
2023-02-11T07:55:19.920Z,74.74
2023-02-11T07:58:22.294Z,75.16
2023-02-11T08:01:28.268Z,73.92
2023-02-11T08:04:30.734Z,74.37
2023-02-11T08:07:33.130Z,75.59
2023-02-11T08:10:35.429Z,73.00
2023-02-11T08:13:38.677Z,74.06
2023-02-11T08:16:41.918Z,72.77
2023-02-11T08:19:44.372Z,73.13
2023-02-11T08:22:46.760Z,72.44
2023-02-11T08:25:49.111Z,73.41
2023-02-11T08:28:53.112Z,72.23
2023-02-11T08:31:55.542Z,72.74
2023-02-11T08:34:58.005Z,72.71
2023-02-11T08:38:00.332Z,73.40
2023-02-11T08:41:02.794Z,71.90
2023-02-11T08:44:05.442Z,71.37
2023-02-11T08:47:08.204Z,70.98
2023-02-11T08:50:10.560Z,70.76
2023-02-11T08:53:13.006Z,69.86
2023-02-11T08:56:16.842Z,70.95
2023-02-11T08:59:19.805Z,70.14
2023-02-11T09:02:22.299Z,69.71
2023-02-11T09:05:24.824Z,66.94
2023-02-11T09:08:27.228Z,68.63
2023-02-11T09:11:34.946Z,69.27
2023-02-11T09:14:38.424Z,69.30
2023-02-11T09:17:40.884Z,69.90
2023-02-11T09:20:43.337Z,69.73
2023-02-11T09:23:47.904Z,68.85
2023-02-11T09:26:50.381Z,68.11
2023-02-11T09:29:52.748Z,67.24
2023-02-11T09:32:55.130Z,65.56
2023-02-11T09:36:01.427Z,64.66
2023-02-11T09:39:06.106Z,64.79
2023-02-11T09:42:24.276Z,61.49
2023-02-11T09:45:28.982Z,62.10
2023-02-11T09:48:40.131Z,63.78
2023-02-11T09:51:48.335Z,60.84
2023-02-11T09:54:58.126Z,60.05
2023-02-11T09:58:05.185Z,58.81
2023-02-11T10:01:36.377Z,57.05
2023-02-11T10:04:44.718Z,59.11
2023-02-11T10:08:01.278Z,60.00
2023-02-11T10:11:22.652Z,59.67
2023-02-11T10:14:43.926Z,61.04
2023-02-11T10:18:23.685Z,60.56
2023-02-11T10:21:52.821Z,61.83
2023-02-11T10:24:59.837Z,63.33
2023-02-11T10:28:20.270Z,64.06
2023-02-11T10:31:27.741Z,64.83
2023-02-11T10:34:30.258Z,64.77
2023-02-11T10:37:32.763Z,64.79
2023-02-11T10:40:35.210Z,63.31
2023-02-11T10:43:37.609Z,64.27
2023-02-11T10:46:40.314Z,62.35
2023-02-11T10:49:44.428Z,63.34
2023-02-11T10:52:47.014Z,62.93
2023-02-11T10:55:57.457Z,60.78
2023-02-11T10:59:05.350Z,56.76
2023-02-11T11:02:34.314Z,55.66
2023-02-11T11:05:46.633Z,49.94
2023-02-11T11:08:51.649Z,47.46
2023-02-11T11:11:54.284Z,47.42
2023-02-11T11:15:16.619Z,44.71
2023-02-11T11:18:23.371Z,46.95
2023-02-11T11:21:36.502Z,43.99
2023-02-11T11:24:45.051Z,44.94
2023-02-11T11:27:56.047Z,42.13
2023-02-11T11:30:59.785Z,40.57
2023-02-11T11:34:32.429Z,40.57
2023-02-11T11:37:39.222Z,44.71
2023-02-11T11:40:41.569Z,44.17
2023-02-11T11:43:57.233Z,43.80
2023-02-11T11:47:11.667Z,45.83
2023-02-11T11:50:39.819Z,51.45
2023-02-11T11:54:04.722Z,54.12
2023-02-11T11:57:19.330Z,55.31
2023-02-11T12:00:33.866Z,48.80
2023-02-11T12:03:58.798Z,46.12
2023-02-11T12:07:25.760Z,42.49
2023-02-11T12:10:37.030Z,42.24
2023-02-11T12:14:09.545Z,40.92
2023-02-11T12:17:47.313Z,41.57
2023-02-11T12:21:13.243Z,41.39
2023-02-11T12:24:29.566Z,41.85
2023-02-11T12:27:37.905Z,41.24
2023-02-11T12:31:04.270Z,40.94
2023-02-11T12:34:34.174Z,41.09
2023-02-11T12:38:08.383Z,41.03
2023-02-11T12:41:46.437Z,42.69
2023-02-11T12:45:13.986Z,39.79
2023-02-11T12:48:22.913Z,38.22
2023-02-11T12:51:34.812Z,38.94
2023-02-11T12:54:42.117Z,40.13
2023-02-11T12:57:48.561Z,39.63
2023-02-11T13:00:57.239Z,41.78
2023-02-11T13:04:21.789Z,43.79
2023-02-11T13:07:36.112Z,45.23
2023-02-11T13:10:41.761Z,47.58
2023-02-11T13:13:50.104Z,48.62
2023-02-11T13:16:55.183Z,48.50
2023-02-11T13:20:05.710Z,49.23
2023-02-11T13:23:15.717Z,46.71
2023-02-11T13:26:40.689Z,44.94
2023-02-11T13:30:22.349Z,44.63
2023-02-11T13:33:35.316Z,43.92
2023-02-11T13:36:37.702Z,44.39
2023-02-11T13:39:41.106Z,43.94
2023-02-11T13:42:53.956Z,43.20
2023-02-11T13:46:15.589Z,43.80
2023-02-11T13:49:21.313Z,43.62
2023-02-11T13:52:38.903Z,45.03
2023-02-11T13:55:47.997Z,46.17
2023-02-11T13:58:51.480Z,45.10
2023-02-11T14:02:14.023Z,46.87
2023-02-11T14:05:51.470Z,48.95
2023-02-11T14:09:09.201Z,51.41
2023-02-11T14:12:41.084Z,52.55
2023-02-11T14:15:46.411Z,53.53
2023-02-11T14:18:52.112Z,52.96
2023-02-11T14:22:06.079Z,51.71
2023-02-11T14:25:24.334Z,52.69
2023-02-11T14:28:34.200Z,52.41
2023-02-11T14:31:45.631Z,54.13
2023-02-11T14:35:08.563Z,55.63
2023-02-11T14:38:35.820Z,57.00
2023-02-11T14:41:51.101Z,58.43
2023-02-11T14:44:57.584Z,59.35
2023-02-11T14:48:35.225Z,60.57
2023-02-11T14:51:41.244Z,62.08
2023-02-11T14:54:45.203Z,62.49
2023-02-11T14:57:49.640Z,62.44
2023-02-11T15:01:06.545Z,62.98
2023-02-11T15:04:27.741Z,63.89
2023-02-11T15:07:30.099Z,63.81
2023-02-11T15:10:41.858Z,64.88
2023-02-11T15:13:48.133Z,64.81
2023-02-11T15:16:56.114Z,65.12
2023-02-11T15:20:01.821Z,65.16
2023-02-11T15:23:09.460Z,64.99
2023-02-11T15:26:14.139Z,65.39
2023-02-11T15:29:17.059Z,65.80
2023-02-11T15:32:22.499Z,66.33
2023-02-11T15:35:30.558Z,66.11
2023-02-11T15:38:33.212Z,66.62
2023-02-11T15:41:37.962Z,67.37
2023-02-11T15:44:41.392Z,67.11
2023-02-11T15:47:53.444Z,67.15
2023-02-11T15:51:01.100Z,67.26
2023-02-11T15:54:09.641Z,67.78
2023-02-11T15:57:12.122Z,67.87
2023-02-11T16:00:21.548Z,68.76
2023-02-11T16:03:28.851Z,69.30
2023-02-11T16:06:42.641Z,69.53
2023-02-11T16:09:45.318Z,69.43
2023-02-11T16:13:01.647Z,69.55
2023-02-11T16:16:15.547Z,69.72
2023-02-11T16:19:20.154Z,69.74
2023-02-11T16:22:28.896Z,70.42
2023-02-11T16:25:34.482Z,70.84
2023-02-11T16:28:37.727Z,71.12
2023-02-11T16:31:43.432Z,70.69
2023-02-11T16:34:47.662Z,70.89
2023-02-11T16:37:50.023Z,71.07
2023-02-11T16:40:53.072Z,71.02
2023-02-11T16:43:58.429Z,71.34
2023-02-11T16:47:05.917Z,71.01
2023-02-11T16:50:10.665Z,70.97
2023-02-11T16:53:23.850Z,70.88
2023-02-11T16:56:26.273Z,70.90
2023-02-11T16:59:29.357Z,70.67
2023-02-11T17:02:35.874Z,70.70
2023-02-11T17:05:54.297Z,70.51
2023-02-11T17:08:57.450Z,69.83
2023-02-11T17:12:00.288Z,70.08
2023-02-11T17:15:02.925Z,70.14
2023-02-11T17:18:05.727Z,70.57
2023-02-11T17:21:08.594Z,69.81
2023-02-11T17:24:12.126Z,69.76
2023-02-11T17:27:15.275Z,70.01
2023-02-11T17:30:18.210Z,70.20
2023-02-11T17:33:21.956Z,70.45
2023-02-11T17:36:24.549Z,69.72
2023-02-11T17:39:27.637Z,70.04
2023-02-11T17:42:31.279Z,70.20
2023-02-11T17:45:34.408Z,70.14
2023-02-11T17:48:38.608Z,70.67
2023-02-11T17:51:41.114Z,70.48
2023-02-11T17:54:44.078Z,70.50
2023-02-11T17:57:46.868Z,71.02
2023-02-11T18:00:50.158Z,71.10
2023-02-11T18:03:54.146Z,70.39
2023-02-11T18:06:57.769Z,70.63
2023-02-11T18:10:00.467Z,69.51
2023-02-11T18:13:03.092Z,69.71
2023-02-11T18:16:08.561Z,70.05
2023-02-11T18:19:11.822Z,69.78
2023-02-11T18:22:14.681Z,69.85
2023-02-11T18:25:18.398Z,69.76
2023-02-11T18:28:20.877Z,69.66
2023-02-11T18:31:24.941Z,69.01
2023-02-11T18:34:27.511Z,67.88
2023-02-11T18:37:30.077Z,67.83
2023-02-11T18:40:32.562Z,68.02
2023-02-11T18:43:36.166Z,68.50
2023-02-11T18:46:38.784Z,68.47
2023-02-11T18:49:41.839Z,68.13
2023-02-11T18:52:44.574Z,68.39
2023-02-11T18:55:49.307Z,68.64
2023-02-11T18:58:52.187Z,69.25
2023-02-11T19:01:55.220Z,69.29
2023-02-11T19:04:58.256Z,69.66
2023-02-11T19:08:01.255Z,69.84
2023-02-11T19:11:04.589Z,70.23
2023-02-11T19:14:10.457Z,70.25
2023-02-11T19:17:13.503Z,69.71
2023-02-11T19:20:16.926Z,69.20
2023-02-11T19:23:19.549Z,69.20
2023-02-11T19:26:28.419Z,68.76
2023-02-11T19:29:33.450Z,69.67
2023-02-11T19:32:36.083Z,70.45
2023-02-11T19:35:38.731Z,70.42
2023-02-11T19:38:43.679Z,70.26
2023-02-11T19:41:46.558Z,70.61
2023-02-11T19:44:49.313Z,70.30
2023-02-11T19:47:55.301Z,70.15
2023-02-11T19:51:06.683Z,70.48
2023-02-11T19:54:09.825Z,70.22
2023-02-11T19:57:12.445Z,69.51
2023-02-11T20:00:15.786Z,69.28
2023-02-11T20:03:18.631Z,69.36
2023-02-11T20:06:25.712Z,69.65
2023-02-11T20:09:31.165Z,69.47
2023-02-11T20:12:33.920Z,68.33
2023-02-11T20:15:36.763Z,68.62
2023-02-11T20:18:40.527Z,69.50
2023-02-11T20:21:46.694Z,68.09
2023-02-11T20:24:49.450Z,68.34
2023-02-11T20:27:51.759Z,68.91
2023-02-11T20:30:58.055Z,68.80
2023-02-11T20:34:01.721Z,69.46
2023-02-11T20:37:05.007Z,70.22
2023-02-11T20:40:08.038Z,70.90
2023-02-11T20:43:10.803Z,70.49
2023-02-11T20:46:16.357Z,70.93
2023-02-11T20:49:21.555Z,71.57
2023-02-11T20:52:24.134Z,70.23
2023-02-11T20:55:26.849Z,70.47
2023-02-11T20:58:30.366Z,70.66
2023-02-11T21:01:40.653Z,71.15
2023-02-11T21:04:43.312Z,71.87
2023-02-11T21:07:46.177Z,72.00
2023-02-11T21:10:48.846Z,71.47
2023-02-11T21:13:51.426Z,70.92
2023-02-11T21:16:54.651Z,71.39
2023-02-11T21:19:57.639Z,71.99
2023-02-11T21:23:00.305Z,71.31
2023-02-11T21:26:02.976Z,70.94
2023-02-11T21:29:07.797Z,71.69
2023-02-11T21:32:10.544Z,71.96
2023-02-11T21:35:13.233Z,71.05
2023-02-11T21:38:16.570Z,71.45
2023-02-11T21:41:25.010Z,72.05
2023-02-11T21:44:27.625Z,72.19
2023-02-11T21:47:31.564Z,72.76
2023-02-11T21:50:34.001Z,72.64
2023-02-11T21:53:36.682Z,73.07
2023-02-11T21:56:39.174Z,73.39
2023-02-11T21:59:42.226Z,73.77
2023-02-11T22:02:44.727Z,74.37
2023-02-11T22:05:48.578Z,74.03
2023-02-11T22:08:50.993Z,74.74
2023-02-11T22:11:53.778Z,75.70
2023-02-11T22:14:56.124Z,76.27
2023-02-11T22:17:58.517Z,77.17
2023-02-11T22:21:16.419Z,77.04
2023-02-11T22:24:18.881Z,77.46
2023-02-11T22:27:21.898Z,76.75
2023-02-11T22:30:24.354Z,77.80
2023-02-11T22:33:28.152Z,77.47
2023-02-11T22:36:40.151Z,77.83
2023-02-11T22:39:42.910Z,77.89
2023-02-11T22:42:45.327Z,78.68
2023-02-11T22:45:47.799Z,78.28
2023-02-11T22:48:51.010Z,77.95
2023-02-11T22:51:53.391Z,79.36
2023-02-11T22:54:55.746Z,80.25
2023-02-11T22:57:58.137Z,79.90
2023-02-11T23:01:00.593Z,80.48
2023-02-11T23:04:05.788Z,80.58
2023-02-11T23:07:08.095Z,79.36
2023-02-11T23:10:11.072Z,79.60
2023-02-11T23:13:13.543Z,80.90
2023-02-11T23:16:19.241Z,80.48
2023-02-11T23:19:21.616Z,79.53
2023-02-11T23:22:23.996Z,80.16
2023-02-11T23:25:26.461Z,79.78
2023-02-11T23:28:29.466Z,79.37
2023-02-11T23:31:37.440Z,79.23
2023-02-11T23:34:40.060Z,79.36
2023-02-11T23:37:42.430Z,80.22
2023-02-11T23:40:44.830Z,79.43
2023-02-11T23:43:55.257Z,79.54
2023-02-11T23:46:57.788Z,80.16
2023-02-11T23:50:00.266Z,79.66
2023-02-11T23:53:02.670Z,78.79
2023-02-11T23:56:15.172Z,79.62
2023-02-11T23:59:17.814Z,80.45
